Data Pengamatan (METAR)
2017-12-11 03:30:00Z
METAR WAOO 110330Z 27006KT 9999 -RA SCT015 26/25 Q1011=
2017-12-11 03:00:00Z
METAR WAOO 110300Z 22004KT 9999 SCT015 26/24 Q1012=
2017-12-11 02:30:00Z
METAR WAOO 110230Z 29004KT 9999 RA SCT015 26/25 Q1012=
2017-12-11 02:00:00Z
METAR WAOO 110200Z 00000KT 9999 -RA SCT15 26/25 Q1012=
2017-12-11 01:30:00Z
METAR WAOO 110130Z 01002KT 9999 SCT015 26/24 Q1012=
2017-12-11 01:00:00Z
METAR WAOO 110100Z 12003KT 9999 SCT015 25/25 Q1012=
2017-12-11 00:30:00Z
METAR WAOO 110030Z 07004KT 9000 SCT015 25/24 Q1012=
2017-12-11 00:00:00Z
METAR WAOO 110000Z 06004KT 7000 RA SCT015 25/24 Q1012=
2017-12-10 23:30:00Z
METAR WAOO 102330Z 09005KT 7000 RA SCT015 24/23 Q1012=
2017-12-10 23:00:00Z
METAR WAOO 102300Z 09004KT 6000 -RA SCT015 24/24 Q1011 BECMG FM2400 9000=
2017-12-10 22:00:00Z
METAR WAOO 102200Z 08005KT 5000 -RA SCT015 24/24 Q1010=
2017-12-10 21:30:00Z
METAR WAOO 102130Z AUTO 07005KT 4200 RA BKN026 OVC037 24/24 Q1010=
2017-12-10 21:00:00Z
METAR WAOO 102100Z AUTO 11003KT 3700 -RA FEW016 BKN025 BKN032 24/24 Q1010=
2017-12-10 20:30:00Z
METAR WAOO 102030Z AUTO 13003KT 080V180 5000 -RA SCT023 BKN036 OVC065 24/23 Q1009=
2017-12-10 20:00:00Z
METAR WAOO 102000Z AUTO 14003KT 4100 -RA SCT023 BKN031 OVC150 24/23 Q1010=
2017-12-10 19:30:00Z
METAR WAOO 101930Z AUTO 17001KT 2900 -RA BKN004 BKN019 OVC032 24/23 Q1010=
2017-12-10 19:00:00Z
METAR WAOO 101900Z AUTO 26004KT 230V290 5000 -TSRA FEW006 SCT020 OVC055 24/23 Q1010=
2017-12-10 18:30:00Z
METAR WAOO 101830Z AUTO 29009KT 5000 VCTS RA SCT001 BKN032 OVC095 24/23 Q1010=
2017-12-10 18:00:00Z
METAR WAOO 101800Z AUTO 30003KT 270V330 4200 VCTS RA BKN001 BKN006 OVC040 24/23 Q1010=
2017-12-10 17:30:00Z
METAR WAOO 101730Z AUTO 36004KT 300V040 3400 TSRA BKN002 BKN010 OVC034 24/24 Q1010=
2017-12-10 17:00:00Z
METAR WAOO 101700Z AUTO 05004KT 4100 -RA OVC002 24/24 Q1011=
2017-12-10 16:30:00Z
METAR WAOO 101630Z AUTO VRB02KT 3200 VCTS RA SCT007 BKN027 OVC042 24/24 Q1011=
2017-12-10 16:00:00Z
METAR WAOO 101600Z AUTO 15005KT 3200 VCTS RA SCT018 BKN036 OVC055 24/24 Q1011=
2017-12-10 15:30:00Z
METAR WAOO 101530Z 19008KT 0300 R10/1600 R28/0800 +RA SCT014 24/24 Q1012=
2017-12-10 15:00:00Z
METAR WAOO 101500Z 12005KT 3100 VCTS RA SCT015 25/24 Q1012 TEMPO TL1500 3000 RA=
2017-12-10 14:30:00Z
METAR WAOO 101430Z 16004KT 130V200 0750 R10/P2000 R28/1600 +TSRA SCT013 24/24 Q1012 TEMPO TL1500 3000 RA=
2017-12-10 14:00:00Z
METAR WAOO 101400Z 28003KT 1000 R10/P2000 R28/1900 +RA BKN012 24/24 Q1012 TEMPO TL1500 3000 RA=
2017-12-10 13:30:00Z
METAR WAOO 101330Z 27015KT 0750 R10/1600 R28/P2000 +RA BKN013 24/23 Q1012 TEMPO TL1500 3000 RA=
2017-12-10 13:00:00Z
METAR WAOO 101300Z 24011KT 2500 +RA SCT013 25/24 Q1012=
2017-12-10 12:30:00Z
METAR WAOO 101230Z 22002KT 9999 SCT018 27/25 Q1011=
2017-12-10 12:00:00Z
METAR WAOO 101200Z 23002KT 9999 SCT018 27/24 Q1010=
2017-12-10 11:30:00Z
METAR WAOO 101130Z 24003KT 9999 SCT015 27/24 Q1010=
2017-12-10 11:00:00Z
METAR WAOO 101100Z 25005KT 9999 SCT015 27/24 Q1010=
2017-12-10 10:30:00Z
METAR WAOO 101030Z 26009KT 9999 SCT015 28/24 Q1010=
2017-12-10 10:00:00Z
METAR WAOO 101000Z 26008KT 9999 SCT015 28/24 Q1009=
2017-12-10 09:30:00Z
METAR WAOO 100930Z 26011KT 9999 SCT015 29/25 Q1009=
2017-12-10 09:00:00Z
METAR WAOO 100900Z 26007KT 9999 -RA SCT015 29/24 Q1008=
2017-12-10 08:30:00Z
METAR WAOO 100830Z 24011KT 9999 SCT016 29/24 Q1008=
2017-12-10 08:00:00Z
METAR WAOO 100800Z 25005KT 9999 SCT016 29/24 Q1008=
2017-12-10 07:30:00Z
METAR WAOO 100730Z 25008KT 9999 SCT016 28/25 Q1008=
2017-12-10 07:00:00Z
METAR WAOO 100700Z 22006KT 9999 SCT016 29/25 Q1008=
2017-12-10 06:30:00Z
METAR WAOO 100630Z 25011KT 9999 SCT016 28/25 Q1009=
2017-12-10 06:00:00Z
METAR WAOO 100600Z 29009KT 9999 SCT016 28/25 Q1009=
2017-12-10 05:30:00Z
METAR WAOO 100530Z 28006KT 9999 SCT018 27/24 Q1010=
2017-12-10 05:00:00Z
METAR WAOO 100500Z 26006KT 9999 SCT017 27/24 Q1010=
2017-12-10 04:30:00Z
METAR WAOO 100430Z 26006KT 9999 FEW018 27/24 Q1011=
2017-12-10 04:00:00Z
METAR WAOO 100400Z 26007KT 9999 SCT020 26/24 Q1011=
Citra Satelit Himawari-8
Tinggi Gelombang Laut
Sebaran Titik Panas
Potensi Kebakaran Hutan